Time;durP1;ratioP1;P1;durP2;ratioP2;P2;SDS_P1;SDS_P2;PMS_P1;PMS_P2;Temp;Humidity;BMP_temperature;BMP_pressure;BME280_temperature;BME280_humidity;BME280_pressure;Samples;Min_cycle;Max_cycle;Signal;HPM_P1;HPM_P2
2022/01/22 00:01:16;;;;;;;16.47;6.03;;;-1.90;99.90;;;;;;10448680;28;20029;-81
2022/01/22 00:06:17;;;;;;;17.00;5.10;;;-1.90;99.90;;;;;;10431575;28;20020;-83
2022/01/22 00:11:17;;;;;;;13.70;5.30;;;-1.90;99.90;;;;;;10448683;28;20116;-81
2022/01/22 00:16:18;;;;;;;16.10;6.20;;;-1.90;99.90;;;;;;10448968;28;20187;-80
2022/01/22 00:21:19;;;;;;;15.47;4.60;;;-1.90;99.90;;;;;;10453802;28;20472;-82
2022/01/22 00:26:19;;;;;;;12.97;4.53;;;-1.90;99.90;;;;;;10456036;28;20021;-84
2022/01/22 00:31:20;;;;;;;12.43;3.87;;;-1.90;99.90;;;;;;10456592;28;20048;-82
2022/01/22 00:36:21;;;;;;;9.67;4.43;;;-1.90;99.90;;;;;;10456631;28;20028;-81
2022/01/22 00:41:22;;;;;;;9.17;4.20;;;-1.80;99.90;;;;;;10450957;28;20107;-81
2022/01/22 00:46:25;;;;;;;12.93;5.43;;;-1.80;99.90;;;;;;10421436;28;20030;-81
2022/01/22 00:51:26;;;;;;;13.27;4.27;;;-1.80;99.90;;;;;;10416035;28;20029;-81
2022/01/22 00:56:26;;;;;;;11.83;4.10;;;-1.80;99.90;;;;;;10446187;28;20036;-84
2022/01/22 01:01:28;;;;;;;11.20;4.60;;;-1.80;99.90;;;;;;10455922;28;20028;-81
2022/01/22 01:06:30;;;;;;;9.90;3.90;;;-1.80;99.90;;;;;;10455768;28;20431;-81
2022/01/22 01:11:33;;;;;;;13.00;3.73;;;-1.80;99.90;;;;;;10454337;28;20408;-81
2022/01/22 01:32:18;;;;;;;13.20;4.30;;;-1.70;99.90;;;;;;10453417;28;20451;-82
2022/01/22 01:37:20;;;;;;;9.80;4.30;;;-1.70;99.90;;;;;;10454425;28;20433;-81
2022/01/22 01:42:36;;;;;;;13.23;4.53;;;-1.70;99.90;;;;;;10453780;28;20059;-80
2022/01/22 01:47:40;;;;;;;9.67;3.87;;;-1.70;99.90;;;;;;10454056;28;21680;-81
2022/01/22 01:52:48;;;;;;;10.03;3.87;;;-1.70;99.90;;;;;;10454865;28;20074;-85
2022/01/22 01:57:49;;;;;;;9.77;4.23;;;-1.70;99.90;;;;;;10453260;28;20118;-81
2022/01/22 02:02:52;;;;;;;8.50;3.87;;;-1.70;99.90;;;;;;10452710;28;20115;-81
2022/01/22 02:07:55;;;;;;;14.23;4.43;;;-1.70;99.90;;;;;;10453666;28;20040;-81
2022/01/22 02:28:52;;;;;;;11.03;4.67;;;-1.80;99.90;;;;;;10394028;28;20041;-83
2022/01/22 02:39:06;;;;;;;12.33;5.97;;;-2.00;99.90;;;;;;10451743;28;20395;-80
2022/01/22 02:44:21;;;;;;;12.00;6.13;;;-2.10;99.90;;;;;;10450469;28;20028;-80
2022/01/22 02:49:22;;;;;;;10.80;5.47;;;-2.20;99.90;;;;;;10452023;28;20033;-81
2022/01/22 02:54:23;;;;;;;13.03;5.23;;;-2.10;99.90;;;;;;10451598;28;20112;-80
2022/01/22 02:59:24;;;;;;;11.43;5.40;;;-2.20;99.90;;;;;;10450844;28;20025;-80
2022/01/22 03:04:25;;;;;;;8.97;4.17;;;-2.30;99.90;;;;;;10450563;28;20111;-80
2022/01/22 03:09:31;;;;;;;9.33;4.50;;;-2.40;99.90;;;;;;10451523;28;20342;-80
2022/01/22 03:30:10;;;;;;;10.33;5.97;;;-2.80;99.90;;;;;;10449971;28;20135;-80
2022/01/22 03:35:24;;;;;;;11.53;5.20;;;-2.90;99.90;;;;;;10432099;28;20307;-80
2022/01/22 03:40:27;;;;;;;10.90;5.47;;;-2.90;99.90;;;;;;10432542;28;20024;-80
2022/01/22 03:45:28;;;;;;;14.37;6.20;;;-2.80;99.90;;;;;;10449563;28;20103;-80
2022/01/22 03:50:29;;;;;;;15.43;6.13;;;-2.70;99.90;;;;;;10448719;28;20432;-80
2022/01/22 04:00:39;;;;;;;9.83;4.40;;;-2.50;99.90;;;;;;10449521;28;20052;-80
2022/01/22 04:05:54;;;;;;;9.20;4.77;;;-2.40;99.90;;;;;;10448597;28;20119;-80
2022/01/22 04:10:55;;;;;;;8.05;4.50;;;-2.30;99.90;;;;;;10448050;28;20059;-80
2022/01/22 04:15:56;;;;;;;9.53;4.20;;;-2.30;99.90;;;;;;10448463;28;20057;-82
2022/01/22 04:31:17;;;;;;;11.03;5.73;;;-2.60;99.90;;;;;;10448306;28;20049;-80
2022/01/22 04:36:17;;;;;;;10.30;5.00;;;-2.70;99.90;;;;;;10431162;28;20029;-80
2022/01/22 04:41:20;;;;;;;13.67;5.67;;;-2.70;99.90;;;;;;10445672;28;20704;-80
2022/01/22 04:46:26;;;;;;;11.10;4.47;;;-3.00;99.90;;;;;;10437216;28;20025;-79
2022/01/22 04:56:46;;;;;;;10.53;4.93;;;-3.20;99.90;;;;;;10448669;28;20481;-83
2022/01/22 05:01:47;;;;;;;10.07;4.80;;;-3.30;99.90;;;;;;10439306;28;20037;-80
2022/01/22 05:06:48;;;;;;;9.83;4.93;;;-3.40;99.90;;;;;;10467769;28;20037;-80
2022/01/22 05:11:49;;;;;;;12.50;5.33;;;-3.40;99.90;;;;;;10455126;28;20070;-80
2022/01/22 05:16:50;;;;;;;10.97;5.47;;;-3.50;99.90;;;;;;10454991;28;20472;-80
2022/01/22 05:21:54;;;;;;;11.37;5.13;;;-3.50;99.90;;;;;;10454315;28;20033;-80
2022/01/22 05:37:15;;;;;;;10.57;5.27;;;-3.70;99.90;;;;;;10454144;28;20037;-82
2022/01/22 05:42:16;;;;;;;12.43;5.67;;;-3.80;99.90;;;;;;10448031;28;20434;-84
2022/01/22 05:47:23;;;;;;;15.60;7.37;;;-3.90;99.90;;;;;;10444142;28;20035;-82
2022/01/22 05:52:35;;;;;;;18.23;7.27;;;-3.90;99.90;;;;;;10435645;28;20547;-82
2022/01/22 06:02:57;;;;;;;20.70;8.73;;;-4.00;99.90;;;;;;10421811;28;20029;-79
2022/01/22 06:07:58;;;;;;;22.17;9.13;;;-4.00;99.90;;;;;;10453766;28;20033;-79
2022/01/22 06:13:12;;;;;;;26.37;9.83;;;-4.10;99.90;;;;;;10453779;28;20102;-79
2022/01/22 06:18:12;;;;;;;27.43;12.23;;;-4.10;99.90;;;;;;10452840;28;20032;-80
2022/01/22 06:23:13;;;;;;;27.23;10.63;;;-4.10;99.90;;;;;;10452979;28;20025;-81
2022/01/22 06:28:14;;;;;;;27.43;10.83;;;-4.00;99.90;;;;;;10452133;28;20483;-81
2022/01/22 06:33:15;;;;;;;32.20;12.80;;;-4.00;99.90;;;;;;10452489;28;20036;-80
2022/01/22 06:38:17;;;;;;;26.43;10.27;;;-3.90;99.90;;;;;;10453241;28;20059;-79
2022/01/22 06:43:17;;;;;;;28.27;11.17;;;-3.90;99.90;;;;;;10450758;28;20040;-80
2022/01/22 06:48:19;;;;;;;29.93;12.30;;;-3.80;99.90;;;;;;10430892;28;20071;-80
2022/01/22 06:53:20;;;;;;;38.60;14.10;;;-3.80;99.90;;;;;;10435457;28;20143;-83
2022/01/22 06:58:21;;;;;;;36.93;13.60;;;-3.70;99.90;;;;;;10449933;28;20079;-81
2022/01/22 07:03:22;;;;;;;40.07;16.93;;;-3.70;99.90;;;;;;10405531;28;20391;-84
2022/01/22 07:08:23;;;;;;;33.87;13.57;;;-3.60;99.90;;;;;;10451328;28;20087;-80
2022/01/22 07:13:23;;;;;;;34.70;13.00;;;-3.50;99.90;;;;;;10450612;28;20393;-81
2022/01/22 07:18:24;;;;;;;31.20;13.13;;;-3.40;99.90;;;;;;10442225;28;20029;-80
2022/01/22 07:24:22;;;;;;;36.20;15.30;;;-3.30;99.90;;;;;;10422524;28;20117;-83
2022/01/22 07:28:51;;;;;;;33.07;12.90;;;-3.30;99.90;;;;;;10439003;28;20045;-83
2022/01/22 07:33:52;;;;;;;31.93;12.57;;;-3.20;99.90;;;;;;10449170;28;20040;-79
2022/01/22 07:38:53;;;;;;;31.33;12.70;;;-3.10;99.90;;;;;;10444749;28;20025;-81
2022/01/22 07:43:53;;;;;;;30.23;13.10;;;-3.10;99.90;;;;;;10434051;28;20040;-79
2022/01/22 07:48:54;;;;;;;25.60;12.07;;;-3.10;99.90;;;;;;10446475;28;20029;-81
2022/01/22 07:53:55;;;;;;;30.73;12.50;;;-3.00;99.90;;;;;;10449654;28;20144;-82
2022/01/22 07:58:57;;;;;;;34.37;12.97;;;-3.00;99.90;;;;;;10450015;28;20021;-83
2022/01/22 08:03:57;;;;;;;30.93;12.33;;;-2.90;99.90;;;;;;10446552;28;20477;-82
2022/01/22 08:08:58;;;;;;;30.67;14.13;;;-2.80;99.90;;;;;;10448957;28;20029;-80
2022/01/22 08:13:59;;;;;;;23.30;10.77;;;-2.60;99.90;;;;;;10448846;28;20057;-80
2022/01/22 08:19:00;;;;;;;25.07;10.17;;;-2.40;99.90;;;;;;10449122;28;20036;-86
2022/01/22 08:24:00;;;;;;;25.07;11.70;;;-2.20;99.90;;;;;;10429558;28;20035;-79
2022/01/22 08:29:03;;;;;;;30.10;12.10;;;-2.10;99.90;;;;;;10447885;28;20040;-81
2022/01/22 08:39:24;;;;;;;25.90;11.40;;;-1.90;99.90;;;;;;10449601;28;20045;-79
2022/01/22 08:44:25;;;;;;;26.57;9.90;;;-1.80;99.90;;;;;;10456320;28;20518;-78
2022/01/22 08:49:27;;;;;;;20.33;8.70;;;-1.80;99.90;;;;;;10456470;28;20029;-79
2022/01/22 08:54:28;;;;;;;19.77;8.60;;;-1.60;99.90;;;;;;10454131;28;20021;-82
2022/01/22 08:59:30;;;;;;;20.37;8.27;;;-1.50;99.90;;;;;;10452583;28;20095;-80
2022/01/22 09:04:33;;;;;;;20.07;7.80;;;-1.40;99.90;;;;;;10451321;28;20116;-82
2022/01/22 09:09:38;;;;;;;20.13;7.47;;;-1.10;99.90;;;;;;10436572;28;20037;-83
2022/01/22 09:14:39;;;;;;;19.13;7.47;;;-1.10;99.90;;;;;;10434694;28;20534;-81
2022/01/22 09:19:40;;;;;;;19.87;7.47;;;-0.90;99.90;;;;;;10435359;28;20047;-78
2022/01/22 09:24:42;;;;;;;17.70;8.40;;;-0.90;99.90;;;;;;10438020;28;20033;-78
2022/01/22 09:29:45;;;;;;;20.83;7.70;;;-0.70;99.90;;;;;;10454246;28;20041;-77
2022/01/22 09:34:48;;;;;;;19.87;7.57;;;-0.70;99.90;;;;;;10453361;28;20556;-82
2022/01/22 09:39:48;;;;;;;20.23;8.13;;;-0.70;99.90;;;;;;10445847;28;20056;-81
2022/01/22 09:44:49;;;;;;;18.10;8.07;;;-0.80;99.90;;;;;;10415552;28;20056;-81
2022/01/22 09:49:50;;;;;;;22.80;7.93;;;-0.90;99.90;;;;;;10452170;28;20124;-80
2022/01/22 09:54:51;;;;;;;16.70;6.73;;;-0.60;99.90;;;;;;10435460;28;20489;-79
2022/01/22 09:59:51;;;;;;;16.17;6.33;;;-0.40;99.90;;;;;;10453688;28;20037;-81
2022/01/22 10:04:52;;;;;;;16.30;5.93;;;-0.40;99.90;;;;;;10426355;28;20041;-79
2022/01/22 10:10:03;;;;;;;16.03;6.50;;;-0.60;99.90;;;;;;10434956;28;20115;-82
2022/01/22 10:15:03;;;;;;;17.03;7.47;;;-0.70;99.90;;;;;;10452562;28;20527;-82
2022/01/22 10:20:24;;;;;;;17.37;6.83;;;-0.70;99.90;;;;;;10424877;28;20044;-81
2022/01/22 10:25:38;;;;;;;12.80;5.77;;;-0.60;99.90;;;;;;10452796;28;20527;-80
2022/01/22 10:30:42;;;;;;;15.90;6.33;;;-0.50;99.90;;;;;;10451936;28;20498;-81
2022/01/22 10:35:42;;;;;;;13.93;5.50;;;-0.40;99.90;;;;;;10434219;28;20032;-83
2022/01/22 10:40:45;;;;;;;12.87;5.97;;;-0.40;99.90;;;;;;10452326;28;20105;-84
2022/01/22 10:47:03;;;;;;;9.73;4.03;;;-0.50;99.90;;;;;;10452155;28;20369;-81
2022/01/22 10:51:30;;;;;;;18.03;6.27;;;-0.50;99.90;;;;;;10436935;28;20106;-84
2022/01/22 10:56:32;;;;;;;17.10;6.53;;;-0.60;99.90;;;;;;10450297;28;20029;-81
2022/01/22 11:01:59;;;;;;;17.07;6.33;;;-0.50;99.90;;;;;;10449187;28;20032;-79
2022/01/22 11:07:06;;;;;;;17.33;7.23;;;-0.40;99.90;;;;;;10449155;28;20025;-79
2022/01/22 11:12:07;;;;;;;15.77;6.90;;;-0.40;99.90;;;;;;10450517;28;20814;-79
2022/01/22 11:17:08;;;;;;;15.60;6.83;;;-0.40;99.90;;;;;;10450704;28;20029;-83
2022/01/22 11:22:11;;;;;;;22.90;7.90;;;-0.10;99.90;;;;;;10450746;28;20576;-80
2022/01/22 11:27:20;;;;;;;21.83;9.00;;;0.00;99.90;;;;;;10449199;28;20032;-82
2022/01/22 11:32:43;;;;;;;20.60;7.47;;;0.00;99.90;;;;;;10431154;28;20037;-78
2022/01/22 11:37:50;;;;;;;15.07;5.67;;;0.00;99.90;;;;;;10409297;28;20037;-82
2022/01/22 11:43:12;;;;;;;15.77;6.23;;;0.20;99.90;;;;;;10429894;28;20143;-82
2022/01/22 11:48:18;;;;;;;16.20;6.67;;;0.00;99.90;;;;;;10447706;28;20058;-81
2022/01/22 11:53:32;;;;;;;13.25;5.47;;;-0.20;99.90;;;;;;10447875;28;20421;-82
2022/01/22 11:58:55;;;;;;;16.63;5.93;;;-0.20;99.90;;;;;;10449086;28;20033;-80
2022/01/22 12:03:56;;;;;;;14.67;5.80;;;-0.40;99.90;;;;;;10425307;28;20041;-79
2022/01/22 12:09:16;;;;;;;14.23;5.90;;;-0.40;99.90;;;;;;10436781;28;20026;-79
2022/01/22 12:14:54;;;;;;;16.60;5.87;;;-0.50;99.90;;;;;;10447342;28;20052;-81
2022/01/22 12:25:03;;;;;;;20.53;6.07;;;-0.70;99.90;;;;;;10456274;28;20037;-80
2022/01/22 12:30:04;;;;;;;16.77;5.65;;;-0.60;99.90;;;;;;10462392;28;20044;-81
2022/01/22 12:35:08;;;;;;;12.47;5.63;;;-0.70;99.90;;;;;;10444529;28;20047;-83
2022/01/22 12:40:11;;;;;;;17.27;5.87;;;-0.70;99.90;;;;;;10461708;28;20024;-83
2022/01/22 12:45:11;;;;;;;16.77;7.70;;;-0.60;99.90;;;;;;10420074;28;20481;-80
2022/01/22 12:50:13;;;;;;;16.33;6.83;;;-0.70;99.90;;;;;;10452242;28;20051;-79
2022/01/22 12:55:26;;;;;;;17.60;6.97;;;-0.70;99.90;;;;;;10459890;28;20024;-79
2022/01/22 13:00:29;;;;;;;15.70;6.63;;;-0.80;99.90;;;;;;10461449;28;20570;-81
2022/01/22 13:05:31;;;;;;;23.90;8.63;;;-0.80;99.90;;;;;;10459901;28;20530;-80
2022/01/22 13:10:43;;;;;;;14.53;6.50;;;-0.90;99.90;;;;;;10458215;28;20033;-79
2022/01/22 13:15:45;;;;;;;15.70;5.83;;;-0.90;99.90;;;;;;10439342;28;20049;-81
2022/01/22 13:20:48;;;;;;;17.77;7.10;;;-0.90;99.90;;;;;;10460673;28;20036;-78
2022/01/22 13:25:48;;;;;;;20.97;7.80;;;-0.80;99.90;;;;;;10440527;28;20036;-80
2022/01/22 13:30:54;;;;;;;17.63;6.10;;;-0.80;99.90;;;;;;10438837;28;20061;-79
2022/01/22 13:36:10;;;;;;;33.28;9.40;;;-0.90;99.90;;;;;;10453774;28;20031;-79
2022/01/22 13:52:12;;;;;;;20.10;7.40;;;-1.00;99.90;;;;;;10452919;28;20041;-78
2022/01/22 13:57:16;;;;;;;19.03;7.40;;;-1.00;99.90;;;;;;10446423;28;20021;-78
2022/01/22 14:02:37;;;;;;;25.47;9.93;;;-1.00;99.90;;;;;;10436678;28;20116;-78
2022/01/22 14:07:47;;;;;;;24.60;9.20;;;-0.90;99.90;;;;;;10451288;28;20079;-80
2022/01/22 14:12:57;;;;;;;19.83;8.30;;;-1.00;99.90;;;;;;10441864;28;20057;-79
2022/01/22 14:23:17;;;;;;;25.77;10.03;;;-1.00;99.90;;;;;;10448387;28;20036;-80
2022/01/22 14:28:17;;;;;;;22.53;8.60;;;-1.10;99.90;;;;;;10452481;28;20021;-80
2022/01/22 14:33:20;;;;;;;28.57;8.93;;;-1.10;99.90;;;;;;10451914;28;20044;-83
2022/01/22 14:38:32;;;;;;;25.53;9.20;;;-1.10;99.90;;;;;;10452348;28;20733;-81
2022/01/22 14:49:10;;;;;;;24.42;8.40;;;-1.10;99.90;;;;;;10423765;28;20401;-78
2022/01/22 14:54:12;;;;;;;21.37;8.30;;;-1.20;99.90;;;;;;10417513;28;20083;-80
2022/01/22 14:59:15;;;;;;;28.40;9.87;;;-1.20;99.90;;;;;;10416196;28;20088;-81
2022/01/22 15:04:17;;;;;;;22.33;8.80;;;-1.20;99.90;;;;;;10416535;28;20013;-79
2022/01/22 15:09:22;;;;;;;28.00;10.17;;;-1.30;99.90;;;;;;10411309;28;20438;-81
2022/01/22 15:14:26;;;;;;;24.00;9.57;;;-1.30;99.90;;;;;;10443885;28;20053;-79
2022/01/22 15:19:27;;;;;;;23.40;10.70;;;-1.30;99.90;;;;;;10431154;28;20033;-77
2022/01/22 15:24:27;;;;;;;26.70;10.47;;;-1.40;99.90;;;;;;10448672;28;20021;-80
2022/01/22 15:29:29;;;;;;;23.20;8.97;;;-1.40;99.90;;;;;;10450567;28;20055;-80
2022/01/22 15:39:32;;;;;;;21.73;8.97;;;-1.40;99.90;;;;;;10450026;28;20093;-81
2022/01/22 15:44:33;;;;;;;29.83;10.53;;;-1.40;99.90;;;;;;10448956;28;20036;-81
2022/01/22 15:49:33;;;;;;;33.53;11.67;;;-1.40;99.90;;;;;;10449635;28;20037;-79
2022/01/22 15:54:34;;;;;;;36.17;14.00;;;-1.40;99.90;;;;;;10448460;28;20040;-82
2022/01/22 15:59:35;;;;;;;27.83;9.67;;;-1.30;99.90;;;;;;10447699;28;20059;-79
2022/01/22 16:04:36;;;;;;;25.63;10.33;;;-1.40;99.90;;;;;;10447012;28;20104;-78
2022/01/22 16:09:36;;;;;;;31.60;11.37;;;-1.40;99.90;;;;;;10448681;28;20136;-79
2022/01/22 16:14:38;;;;;;;34.83;13.63;;;-1.40;99.90;;;;;;10448521;28;20053;-79
2022/01/22 16:19:39;;;;;;;37.20;13.03;;;-1.40;99.90;;;;;;10448512;28;20087;-82
2022/01/22 16:24:40;;;;;;;30.17;10.83;;;-1.40;99.90;;;;;;10446852;28;20740;-78
2022/01/22 16:29:41;;;;;;;30.73;10.60;;;-1.30;99.90;;;;;;10428537;28;20047;-79
2022/01/22 16:34:42;;;;;;;29.13;10.33;;;-1.40;99.90;;;;;;10447228;28;20029;-81
2022/01/22 16:39:43;;;;;;;27.97;10.60;;;-1.40;99.90;;;;;;10448708;28;20064;-79
2022/01/22 16:55:15;;;;;;;30.93;10.57;;;-1.40;99.90;;;;;;10448200;28;20049;-80
2022/01/22 17:00:22;;;;;;;130.43;38.33;;;-1.40;99.90;;;;;;10446277;28;20075;-79
2022/01/22 17:05:23;;;;;;;50.23;14.40;;;-1.40;99.90;;;;;;10441212;28;20023;-80
2022/01/22 17:10:38;;;;;;;27.93;9.97;;;-1.40;99.90;;;;;;10455644;28;20040;-81
2022/01/22 17:15:38;;;;;;;42.90;12.47;;;-1.40;99.90;;;;;;10455530;28;20041;-80
2022/01/22 17:20:39;;;;;;;25.80;9.50;;;-1.40;99.90;;;;;;10454123;28;20021;-79
2022/01/22 17:25:40;;;;;;;53.80;14.73;;;-1.50;99.90;;;;;;10453977;28;20037;-82
2022/01/22 17:30:41;;;;;;;28.77;9.90;;;-1.50;99.90;;;;;;10453481;28;20102;-82
2022/01/22 17:35:42;;;;;;;22.90;8.17;;;-1.50;99.90;;;;;;10435236;28;20033;-80
2022/01/22 17:40:52;;;;;;;39.43;12.93;;;-1.50;99.90;;;;;;10451275;28;20025;-81
2022/01/22 17:45:54;;;;;;;25.30;10.23;;;-1.50;99.90;;;;;;10443404;28;20024;-81
2022/01/22 17:50:55;;;;;;;80.50;25.77;;;-1.50;99.90;;;;;;10452184;28;20115;-79
2022/01/22 17:55:57;;;;;;;37.70;13.33;;;-1.50;99.90;;;;;;10451991;28;20037;-81
2022/01/22 18:01:05;;;;;;;46.33;14.93;;;-1.50;99.90;;;;;;10432654;28;20025;-80
2022/01/22 18:06:08;;;;;;;35.50;12.83;;;-1.50;99.90;;;;;;10450466;28;20029;-79
2022/01/22 18:11:11;;;;;;;26.90;11.33;;;-1.50;99.90;;;;;;10450846;28;20029;-82
2022/01/22 18:16:13;;;;;;;54.63;22.53;;;-1.50;99.90;;;;;;10433161;28;20052;-79
2022/01/22 18:21:14;;;;;;;68.87;28.40;;;-1.50;99.90;;;;;;10450296;28;20056;-81
2022/01/22 18:26:16;;;;;;;44.57;16.57;;;-1.50;99.90;;;;;;10450313;28;20115;-79
2022/01/22 18:31:17;;;;;;;29.97;12.57;;;-1.50;99.90;;;;;;10439237;28;20094;-83
2022/01/22 18:36:18;;;;;;;32.27;12.73;;;-1.60;99.90;;;;;;10434970;28;20029;-80
2022/01/22 18:41:20;;;;;;;26.30;11.63;;;-1.50;99.90;;;;;;10425878;28;20030;-80
2022/01/22 18:46:21;;;;;;;28.80;11.83;;;-1.60;99.90;;;;;;10430344;28;20121;-80
2022/01/22 18:51:24;;;;;;;24.57;9.60;;;-1.60;99.90;;;;;;10432499;28;20045;-80
2022/01/22 18:56:27;;;;;;;24.50;10.30;;;-1.60;99.90;;;;;;10446550;28;20069;-80
2022/01/22 19:01:29;;;;;;;30.03;10.30;;;-1.60;99.90;;;;;;10445848;28;20074;-85
2022/01/22 19:06:30;;;;;;;24.73;10.53;;;-1.60;99.90;;;;;;10444006;28;20070;-82
2022/01/22 19:11:35;;;;;;;33.20;14.47;;;-1.70;99.90;;;;;;10448245;28;20045;-80
2022/01/22 19:16:36;;;;;;;31.13;10.63;;;-1.70;99.90;;;;;;10408078;28;20129;-80
2022/01/22 19:21:50;;;;;;;29.30;10.13;;;-1.70;99.90;;;;;;10408004;28;20544;-79
2022/01/22 19:32:12;;;;;;;22.70;8.67;;;-1.70;99.90;;;;;;10408346;28;20061;-84
2022/01/22 19:37:13;;;;;;;26.83;10.23;;;-1.80;99.90;;;;;;10390451;28;20032;-83
2022/01/22 19:42:16;;;;;;;30.77;10.47;;;-1.70;99.90;;;;;;10409077;28;20116;-80
2022/01/22 19:47:18;;;;;;;31.03;12.07;;;-1.70;99.90;;;;;;10408417;28;20477;-83
2022/01/22 19:52:19;;;;;;;32.27;12.97;;;-1.80;99.90;;;;;;10407486;28;20045;-82
2022/01/22 19:57:20;;;;;;;26.93;10.57;;;-1.80;99.90;;;;;;10407784;28;20029;-80
2022/01/22 20:02:22;;;;;;;30.07;10.87;;;-1.80;99.90;;;;;;10388376;28;20033;-84
2022/01/22 20:07:25;;;;;;;31.00;12.03;;;-1.80;99.90;;;;;;10407107;28;20445;-81
2022/01/22 20:12:26;;;;;;;30.53;12.57;;;-1.80;99.90;;;;;;10403589;28;20080;-81
2022/01/22 20:17:26;;;;;;;32.00;11.93;;;-1.80;99.90;;;;;;10470614;28;20048;-83
2022/01/22 20:22:27;;;;;;;31.00;12.23;;;-1.80;99.90;;;;;;10431717;28;20082;-83
2022/01/22 20:27:28;;;;;;;28.90;12.27;;;-1.90;99.90;;;;;;10437200;28;20032;-82
2022/01/22 20:32:29;;;;;;;24.10;9.17;;;-1.90;99.90;;;;;;10433403;28;20029;-83
2022/01/22 20:37:29;;;;;;;23.00;8.90;;;-1.80;99.90;;;;;;10464438;28;20025;-83
2022/01/22 20:42:31;;;;;;;33.33;10.63;;;-1.90;99.90;;;;;;10450063;28;20029;-80
2022/01/22 20:47:31;;;;;;;35.13;9.73;;;-1.90;99.90;;;;;;10453836;28;20043;-84
2022/01/22 20:52:32;;;;;;;25.23;10.10;;;-2.00;99.90;;;;;;10455040;28;20041;-84
2022/01/22 20:57:34;;;;;;;28.53;9.53;;;-2.00;99.90;;;;;;10438885;28;20495;-83
2022/01/22 21:02:34;;;;;;;19.70;9.17;;;-2.00;99.90;;;;;;10455478;28;20029;-82
2022/01/22 21:07:35;;;;;;;30.50;10.20;;;-2.10;99.90;;;;;;10456517;28;20032;-81
2022/01/22 21:12:37;;;;;;;25.93;9.63;;;-2.10;99.90;;;;;;10456464;28;20049;-83
2022/01/22 21:17:40;;;;;;;23.80;8.57;;;-2.10;99.90;;;;;;10455263;28;20029;-82
2022/01/22 21:22:41;;;;;;;19.27;7.33;;;-2.20;99.90;;;;;;10455196;28;20067;-82
2022/01/22 21:27:42;;;;;;;25.70;8.37;;;-2.20;99.90;;;;;;10454295;28;20033;-80
2022/01/22 21:32:44;;;;;;;27.10;9.87;;;-2.20;99.90;;;;;;10453481;28;20052;-81
2022/01/22 21:42:55;;;;;;;21.33;7.10;;;-2.30;99.90;;;;;;10430440;28;20037;-83
2022/01/22 21:47:56;;;;;;;24.10;7.47;;;-2.30;99.90;;;;;;10398097;28;20033;-84
2022/01/22 21:52:57;;;;;;;18.60;6.80;;;-2.40;99.90;;;;;;10447110;28;20063;-82
2022/01/22 21:57:57;;;;;;;17.67;7.37;;;-2.40;99.90;;;;;;10436248;28;20025;-81
2022/01/22 22:03:01;;;;;;;19.60;7.10;;;-2.50;99.90;;;;;;10445369;28;20392;-81
2022/01/22 22:08:04;;;;;;;23.40;7.17;;;-2.50;99.90;;;;;;10452691;28;20033;-82
2022/01/22 22:13:05;;;;;;;22.37;7.60;;;-2.50;99.90;;;;;;10440531;28;20049;-85
2022/01/22 22:18:07;;;;;;;22.63;7.20;;;-2.50;99.90;;;;;;10447264;28;20067;-81
2022/01/22 22:23:09;;;;;;;21.70;7.47;;;-2.50;99.90;;;;;;10461061;28;20025;-81
2022/01/22 22:28:12;;;;;;;20.87;7.07;;;-2.50;99.90;;;;;;10464792;28;20044;-83
2022/01/22 22:33:13;;;;;;;20.23;7.50;;;-2.50;99.90;;;;;;10434648;28;20125;-83
2022/01/22 22:38:14;;;;;;;26.13;8.13;;;-2.50;99.90;;;;;;10433768;28;20382;-83
2022/01/22 22:43:15;;;;;;;17.60;6.60;;;-2.60;99.90;;;;;;10466336;28;20044;-82
2022/01/22 22:48:16;;;;;;;19.30;7.50;;;-2.50;99.90;;;;;;10449941;28;20028;-82
2022/01/22 22:53:18;;;;;;;22.93;7.20;;;-2.50;99.90;;;;;;10458718;28;20041;-81
2022/01/22 22:58:19;;;;;;;21.87;7.07;;;-2.50;99.90;;;;;;10456000;28;20074;-83
2022/01/22 23:03:22;;;;;;;21.17;8.83;;;-2.50;99.90;;;;;;10459114;28;20012;-82
2022/01/22 23:08:23;;;;;;;18.73;7.27;;;-2.50;99.90;;;;;;10472783;28;20107;-81
2022/01/22 23:13:28;;;;;;;18.50;7.67;;;-2.50;99.90;;;;;;10474371;28;20049;-83
2022/01/22 23:28:41;;;;;;;26.27;8.70;;;-2.80;99.90;;;;;;10450686;28;20496;-84
2022/01/22 23:54:48;;;;;;;23.93;7.47;;;-2.90;99.90;;;;;;10427484;28;20041;-84
